createdAt,value
2023-04-16T00:01:04.981Z,2.53
2023-04-16T00:03:31.766Z,2.17
2023-04-16T00:05:59.264Z,2.00
2023-04-16T00:08:25.840Z,2.13
2023-04-16T00:10:53.771Z,2.13
2023-04-16T00:13:21.096Z,1.95
2023-04-16T00:15:47.584Z,1.60
2023-04-16T00:18:14.261Z,1.73
2023-04-16T00:20:40.808Z,1.92
2023-04-16T00:23:08.402Z,1.92
2023-04-16T00:25:34.847Z,1.60
2023-04-16T00:28:01.380Z,1.58
2023-04-16T00:30:27.948Z,1.55
2023-04-16T00:32:54.594Z,1.55
2023-04-16T00:35:21.398Z,1.85
2023-04-16T00:37:47.869Z,1.55
2023-04-16T00:40:14.412Z,1.48
2023-04-16T00:42:41.377Z,2.20
2023-04-16T00:45:08.620Z,1.58
2023-04-16T00:47:35.473Z,2.25
2023-04-16T00:50:04.282Z,2.30
2023-04-16T00:52:32.952Z,1.85
2023-04-16T00:54:59.591Z,2.30
2023-04-16T00:57:27.149Z,2.30
2023-04-16T00:59:54.450Z,2.78
2023-04-16T01:02:21.098Z,2.63
2023-04-16T01:04:47.668Z,1.98
2023-04-16T01:07:14.189Z,2.88
2023-04-16T01:09:40.804Z,2.13
2023-04-16T01:12:07.296Z,2.50
2023-04-16T01:14:36.286Z,2.15
2023-04-16T01:17:03.952Z,2.58
2023-04-16T01:19:36.460Z,2.75
2023-04-16T01:22:03.921Z,2.85
2023-04-16T01:24:30.743Z,2.63
2023-04-16T01:27:00.696Z,2.47
2023-04-16T01:29:27.675Z,2.47
2023-04-16T01:31:54.519Z,2.78
2023-04-16T01:34:21.178Z,2.88
2023-04-16T01:36:47.660Z,2.85
2023-04-16T01:39:16.405Z,3.80
2023-04-16T01:41:43.697Z,2.97
2023-04-16T01:44:10.356Z,2.67
2023-04-16T01:46:38.154Z,2.90
2023-04-16T01:49:07.343Z,3.13
2023-04-16T01:51:34.197Z,3.75
2023-04-16T01:54:01.189Z,2.90
2023-04-16T01:56:27.729Z,3.67
2023-04-16T01:58:54.255Z,3.60
2023-04-16T02:01:20.960Z,3.22
2023-04-16T02:03:48.244Z,2.55
2023-04-16T02:06:15.125Z,3.72
2023-04-16T02:08:42.012Z,4.45
2023-04-16T02:11:08.677Z,4.22
2023-04-16T02:13:35.487Z,3.72
2023-04-16T02:16:02.725Z,4.55
2023-04-16T02:18:29.266Z,3.58
2023-04-16T02:20:58.669Z,4.47
2023-04-16T02:23:25.373Z,5.47
2023-04-16T02:25:51.857Z,5.07
2023-04-16T02:28:18.414Z,5.45
2023-04-16T02:30:45.295Z,4.60
2023-04-16T02:33:12.668Z,5.38
2023-04-16T02:35:40.548Z,5.00
2023-04-16T02:38:07.551Z,4.97
2023-04-16T02:40:34.165Z,5.18
2023-04-16T02:43:02.084Z,5.72
2023-04-16T02:45:28.586Z,5.28
2023-04-16T02:47:55.097Z,5.88
2023-04-16T02:50:21.671Z,5.45
2023-04-16T02:52:48.651Z,6.20
2023-04-16T02:55:15.371Z,4.53
2023-04-16T02:57:42.706Z,4.95
2023-04-16T03:00:10.033Z,4.88
2023-04-16T03:02:36.944Z,5.63
2023-04-16T03:05:04.205Z,4.90
2023-04-16T03:07:30.851Z,4.35
2023-04-16T03:09:57.483Z,6.18
2023-04-16T03:12:24.223Z,6.00
2023-04-16T03:14:52.593Z,4.65
2023-04-16T03:17:19.273Z,6.43
2023-04-16T03:19:46.205Z,4.55
2023-04-16T03:22:12.852Z,6.07
2023-04-16T03:24:39.450Z,6.55
2023-04-16T03:27:06.072Z,5.78
2023-04-16T03:29:32.538Z,5.72
2023-04-16T03:31:59.184Z,6.28
2023-04-16T03:34:25.917Z,5.38
2023-04-16T03:36:52.453Z,6.47
2023-04-16T03:39:19.513Z,5.72
2023-04-16T03:41:46.369Z,5.38
2023-04-16T03:44:12.915Z,5.30
2023-04-16T03:46:39.463Z,4.15
2023-04-16T03:49:06.338Z,6.20
2023-04-16T03:51:33.000Z,5.70
2023-04-16T03:53:59.548Z,4.53
2023-04-16T03:56:26.029Z,5.80
2023-04-16T03:58:52.652Z,6.13
2023-04-16T04:01:19.268Z,5.88
2023-04-16T04:03:46.095Z,6.53
2023-04-16T04:06:12.755Z,6.80
2023-04-16T04:08:39.302Z,6.70
2023-04-16T04:11:05.784Z,7.10
2023-04-16T04:13:32.448Z,5.40
2023-04-16T04:15:59.026Z,5.90
2023-04-16T04:18:25.671Z,6.88
2023-04-16T04:20:52.429Z,5.63
2023-04-16T04:23:19.251Z,6.00
2023-04-16T04:25:46.137Z,6.80
2023-04-16T04:28:12.650Z,6.85
2023-04-16T04:30:39.151Z,7.90
2023-04-16T04:33:06.465Z,4.80
2023-04-16T04:35:33.783Z,6.68
2023-04-16T04:38:02.514Z,6.18
2023-04-16T04:40:29.327Z,5.40
2023-04-16T04:42:56.302Z,7.38
2023-04-16T04:45:25.593Z,6.45
2023-04-16T04:47:55.374Z,5.43
2023-04-16T04:50:22.449Z,5.80
2023-04-16T04:52:49.105Z,6.30
2023-04-16T04:55:16.201Z,6.57
2023-04-16T04:57:42.779Z,7.25
2023-04-16T05:00:09.769Z,7.00
2023-04-16T05:02:36.618Z,6.22
2023-04-16T05:05:03.949Z,6.25
2023-04-16T05:07:30.751Z,6.68
2023-04-16T05:09:57.342Z,6.85
2023-04-16T05:12:24.129Z,6.28
2023-04-16T05:14:50.856Z,6.35
2023-04-16T05:17:17.398Z,5.60
2023-04-16T05:19:43.895Z,5.07
2023-04-16T05:22:10.645Z,6.65
2023-04-16T05:24:37.042Z,6.55
2023-04-16T05:27:03.628Z,5.88
2023-04-16T05:29:30.584Z,6.03
2023-04-16T05:31:57.212Z,6.43
2023-04-16T05:34:23.715Z,7.85
2023-04-16T05:36:50.435Z,7.35
2023-04-16T05:39:17.318Z,7.10
2023-04-16T05:41:43.936Z,5.40
2023-04-16T05:44:10.544Z,6.85
2023-04-16T05:46:37.079Z,6.55
2023-04-16T05:49:03.746Z,7.40
2023-04-16T05:51:30.221Z,7.45
2023-04-16T05:53:56.662Z,6.78
2023-04-16T05:56:23.565Z,7.07
2023-04-16T05:58:50.132Z,7.05
2023-04-16T06:01:16.695Z,6.70
2023-04-16T06:03:43.633Z,6.82
2023-04-16T06:06:10.364Z,5.57
2023-04-16T06:08:36.820Z,6.78
2023-04-16T06:11:03.813Z,6.60
2023-04-16T06:13:30.435Z,7.13
2023-04-16T06:15:56.999Z,6.63
2023-04-16T06:18:23.700Z,5.88
2023-04-16T06:20:50.516Z,7.40
2023-04-16T06:23:17.321Z,6.80
2023-04-16T06:25:43.883Z,7.35
2023-04-16T06:28:10.285Z,6.88
2023-04-16T06:30:36.840Z,7.57
2023-04-16T06:33:03.594Z,7.70
2023-04-16T06:35:30.065Z,7.57
2023-04-16T06:37:56.894Z,8.60
2023-04-16T06:40:23.512Z,6.78
2023-04-16T06:42:50.062Z,6.60
2023-04-16T06:45:16.597Z,6.55
2023-04-16T06:47:43.136Z,8.18
2023-04-16T06:50:09.987Z,8.40
2023-04-16T06:52:36.955Z,7.95
2023-04-16T06:55:03.767Z,8.35
2023-04-16T06:57:30.672Z,7.53
2023-04-16T06:59:57.217Z,7.22
2023-04-16T07:02:25.038Z,8.10
2023-04-16T07:04:52.432Z,7.97
2023-04-16T07:07:19.084Z,6.88
2023-04-16T07:09:45.743Z,7.57
2023-04-16T07:12:12.473Z,8.13
2023-04-16T07:14:39.466Z,8.50
2023-04-16T07:17:06.016Z,7.85
2023-04-16T07:19:32.792Z,8.52
2023-04-16T07:22:00.073Z,8.93
2023-04-16T07:24:26.602Z,8.43
2023-04-16T07:26:53.111Z,8.05
2023-04-16T07:29:19.492Z,8.80
2023-04-16T07:31:46.578Z,7.85
2023-04-16T07:34:13.209Z,5.07
2023-04-16T07:36:39.934Z,7.75
2023-04-16T07:39:06.419Z,7.00
2023-04-16T07:41:33.473Z,6.15
2023-04-16T07:44:00.102Z,7.95
2023-04-16T07:46:30.494Z,7.75
2023-04-16T07:49:02.695Z,7.40
2023-04-16T07:51:29.182Z,7.18
2023-04-16T07:53:58.744Z,8.15
2023-04-16T07:56:26.007Z,7.28
2023-04-16T07:58:52.532Z,7.20
2023-04-16T08:01:19.100Z,6.65
2023-04-16T08:03:46.000Z,6.75
2023-04-16T08:06:12.697Z,5.85
2023-04-16T08:08:39.320Z,7.38
2023-04-16T08:11:06.010Z,7.28
2023-04-16T08:13:33.617Z,6.32
2023-04-16T08:16:00.469Z,6.20
2023-04-16T08:18:27.116Z,4.78
2023-04-16T08:20:53.556Z,5.00
2023-04-16T08:23:21.030Z,5.97
2023-04-16T08:25:47.857Z,5.70
2023-04-16T08:28:14.453Z,5.45
2023-04-16T08:30:41.028Z,5.28
2023-04-16T08:33:07.713Z,5.43
2023-04-16T08:35:34.334Z,5.32
2023-04-16T08:38:02.461Z,4.88
2023-04-16T08:40:30.004Z,4.70
2023-04-16T08:43:00.139Z,4.95
2023-04-16T08:45:27.637Z,4.78
2023-04-16T08:47:54.342Z,5.22
2023-04-16T08:50:26.126Z,5.10
2023-04-16T08:52:56.606Z,4.28
2023-04-16T08:55:47.592Z,3.92
2023-04-16T08:58:23.832Z,4.93
2023-04-16T09:00:51.140Z,4.45
2023-04-16T09:03:20.216Z,4.55
2023-04-16T09:05:47.318Z,3.85
2023-04-16T09:08:14.066Z,4.13
2023-04-16T09:10:40.747Z,3.67
2023-04-16T09:13:09.595Z,4.45
2023-04-16T09:15:36.356Z,4.47
2023-04-16T09:18:02.991Z,4.38
2023-04-16T09:20:29.602Z,5.13
2023-04-16T09:22:57.206Z,3.53
2023-04-16T09:25:25.103Z,4.35
2023-04-16T09:27:51.690Z,3.28
2023-04-16T09:30:23.000Z,3.78
2023-04-16T09:32:51.809Z,3.88
2023-04-16T09:35:19.873Z,4.38
2023-04-16T09:37:58.753Z,4.10
2023-04-16T09:40:27.342Z,3.97
2023-04-16T09:42:58.105Z,4.80
2023-04-16T09:45:24.746Z,4.68
2023-04-16T09:47:51.252Z,3.97
2023-04-16T09:50:19.767Z,4.82
2023-04-16T09:52:50.590Z,4.82
2023-04-16T09:55:22.805Z,5.05
2023-04-16T09:57:49.267Z,5.22
2023-04-16T10:00:18.945Z,5.38
2023-04-16T10:02:46.599Z,4.72
2023-04-16T10:05:17.780Z,4.72
2023-04-16T10:07:44.291Z,5.00
2023-04-16T10:10:11.179Z,4.22
2023-04-16T10:12:37.803Z,4.43
2023-04-16T10:15:04.986Z,5.18
2023-04-16T10:17:31.963Z,4.90
2023-04-16T10:19:59.046Z,6.85
2023-04-16T10:22:26.357Z,6.47
2023-04-16T10:24:53.518Z,7.00
2023-04-16T10:27:20.777Z,6.85
2023-04-16T10:29:48.902Z,4.80
2023-04-16T10:32:17.744Z,7.03
2023-04-16T10:34:44.461Z,6.25
2023-04-16T10:37:12.021Z,6.53
2023-04-16T10:39:38.615Z,6.90
2023-04-16T10:42:12.733Z,6.70
2023-04-16T10:44:44.251Z,6.30
2023-04-16T10:47:12.940Z,6.38
2023-04-16T10:49:42.762Z,6.00
2023-04-16T10:52:17.051Z,6.20
2023-04-16T10:54:43.891Z,7.28
2023-04-16T10:57:16.194Z,7.82
2023-04-16T10:59:44.083Z,7.43
2023-04-16T11:02:18.078Z,7.05
2023-04-16T11:04:49.538Z,7.45
2023-04-16T11:07:21.466Z,7.35
2023-04-16T11:09:53.752Z,7.03
2023-04-16T11:12:22.997Z,7.18
2023-04-16T11:14:55.111Z,6.90
2023-04-16T11:17:22.054Z,7.03
2023-04-16T11:19:48.845Z,6.63
2023-04-16T11:22:17.557Z,7.18
2023-04-16T11:24:45.680Z,6.93
2023-04-16T11:27:13.882Z,7.10
2023-04-16T11:29:40.561Z,6.22
2023-04-16T11:32:07.642Z,6.72
2023-04-16T11:34:34.463Z,6.22
2023-04-16T11:37:00.991Z,6.35
2023-04-16T11:39:27.766Z,6.72
2023-04-16T11:41:55.601Z,7.55
2023-04-16T11:44:27.275Z,7.78
2023-04-16T11:46:55.022Z,6.85
2023-04-16T11:49:29.052Z,7.63
2023-04-16T11:51:56.270Z,7.60
2023-04-16T11:54:24.248Z,7.10
2023-04-16T11:56:53.355Z,7.97
2023-04-16T11:59:23.300Z,7.38
2023-04-16T12:01:57.146Z,7.30
2023-04-16T12:04:26.183Z,7.35
2023-04-16T12:07:10.239Z,8.10
2023-04-16T12:09:41.596Z,6.70
2023-04-16T12:12:32.040Z,6.90
2023-04-16T12:15:03.881Z,6.90
2023-04-16T12:17:35.219Z,6.13
2023-04-16T12:20:11.132Z,6.75
2023-04-16T12:22:39.803Z,6.82
2023-04-16T12:25:15.613Z,5.95
2023-04-16T12:27:53.385Z,6.28
2023-04-16T12:30:23.037Z,6.65
2023-04-16T12:33:17.068Z,6.50
2023-04-16T12:35:44.972Z,6.20
2023-04-16T12:38:12.144Z,7.15
2023-04-16T12:40:38.730Z,6.10
2023-04-16T12:43:05.567Z,6.05
2023-04-16T12:45:32.209Z,5.53
2023-04-16T12:47:59.028Z,6.15
2023-04-16T12:50:26.172Z,5.68
2023-04-16T12:52:52.868Z,5.75
2023-04-16T12:55:19.631Z,5.68
2023-04-16T12:57:48.804Z,6.03
2023-04-16T13:00:16.358Z,7.13
2023-04-16T13:02:43.065Z,6.65
2023-04-16T13:05:10.107Z,7.10
2023-04-16T13:07:36.662Z,8.10
2023-04-16T13:10:03.519Z,7.25
2023-04-16T13:12:30.126Z,7.97
2023-04-16T13:14:56.580Z,7.70
2023-04-16T13:17:23.296Z,8.15
2023-04-16T13:19:49.937Z,7.93
2023-04-16T13:22:16.458Z,8.10
2023-04-16T13:24:42.990Z,6.55
2023-04-16T13:27:09.657Z,8.70
2023-04-16T13:29:36.844Z,7.80
2023-04-16T13:32:04.065Z,8.35
2023-04-16T13:34:30.855Z,8.20
2023-04-16T13:36:57.360Z,7.63
2023-04-16T13:39:24.082Z,8.35
2023-04-16T13:41:51.632Z,6.55
2023-04-16T13:44:18.365Z,7.75
2023-04-16T13:46:47.795Z,8.15
2023-04-16T13:49:14.865Z,7.88
2023-04-16T13:51:44.493Z,8.70
2023-04-16T13:54:11.067Z,7.00
2023-04-16T13:56:37.815Z,7.10
2023-04-16T13:59:04.449Z,7.38
2023-04-16T14:01:31.220Z,6.78
2023-04-16T14:03:59.376Z,6.68
2023-04-16T14:06:27.132Z,6.63
2023-04-16T14:08:53.705Z,7.00
2023-04-16T14:11:20.656Z,6.97
2023-04-16T14:13:47.555Z,6.78
2023-04-16T14:16:14.044Z,6.82
2023-04-16T14:18:42.365Z,6.75
2023-04-16T14:21:09.220Z,6.65
2023-04-16T14:23:35.840Z,5.95
2023-04-16T14:26:02.427Z,6.38
2023-04-16T14:28:28.953Z,7.10
2023-04-16T14:30:55.575Z,6.40
2023-04-16T14:33:22.301Z,5.65
2023-04-16T14:35:50.393Z,6.47
2023-04-16T14:38:16.990Z,6.63
2023-04-16T14:40:43.547Z,6.70
2023-04-16T14:43:11.446Z,7.03
2023-04-16T14:45:39.146Z,6.25
2023-04-16T14:48:06.318Z,7.18
2023-04-16T14:50:37.857Z,7.18
2023-04-16T14:53:07.626Z,6.78
2023-04-16T14:55:34.333Z,6.45
2023-04-16T14:58:00.986Z,6.28
2023-04-16T15:00:27.685Z,6.68
2023-04-16T15:02:57.743Z,5.35
2023-04-16T15:05:24.562Z,6.00
2023-04-16T15:07:51.344Z,7.10
2023-04-16T15:10:17.894Z,6.82
2023-04-16T15:12:45.482Z,6.95
2023-04-16T15:15:12.014Z,6.35
2023-04-16T15:17:38.648Z,6.38
2023-04-16T15:20:08.541Z,6.07
2023-04-16T15:22:37.163Z,7.00
2023-04-16T15:25:04.649Z,6.53
2023-04-16T15:27:31.058Z,6.75
2023-04-16T15:29:57.763Z,6.75
2023-04-16T15:32:24.394Z,7.03
2023-04-16T15:34:51.005Z,7.53
2023-04-16T15:37:17.547Z,8.27
2023-04-16T15:39:44.864Z,6.95
2023-04-16T15:42:11.742Z,8.60
2023-04-16T15:44:38.143Z,7.50
2023-04-16T15:47:06.396Z,8.00
2023-04-16T15:49:32.987Z,7.38
2023-04-16T15:52:00.448Z,8.10
2023-04-16T15:54:27.225Z,8.27
2023-04-16T15:56:53.723Z,7.05
2023-04-16T15:59:20.202Z,7.47
2023-04-16T16:01:46.707Z,8.07
2023-04-16T16:04:13.605Z,8.10
2023-04-16T16:06:40.396Z,7.25
2023-04-16T16:09:06.914Z,6.68
2023-04-16T16:11:33.758Z,10.18
2023-04-16T16:14:03.293Z,8.45
2023-04-16T16:16:30.042Z,8.25
2023-04-16T16:18:56.477Z,7.78
2023-04-16T16:21:23.081Z,7.18
2023-04-16T16:23:49.610Z,7.45
2023-04-16T16:26:16.089Z,8.80
2023-04-16T16:28:44.678Z,8.35
2023-04-16T16:31:12.258Z,8.63
2023-04-16T16:33:40.431Z,8.30
2023-04-16T16:36:10.827Z,7.57
2023-04-16T16:38:37.968Z,7.60
2023-04-16T16:41:04.415Z,8.55
2023-04-16T16:43:31.114Z,7.80
2023-04-16T16:45:57.629Z,8.65
2023-04-16T16:48:24.122Z,8.63
2023-04-16T16:50:50.667Z,8.10
2023-04-16T16:53:17.095Z,8.23
2023-04-16T16:55:43.602Z,8.82
2023-04-16T16:58:11.162Z,8.25
2023-04-16T17:00:38.083Z,8.43
2023-04-16T17:03:04.891Z,9.00
2023-04-16T17:05:31.702Z,7.82
2023-04-16T17:07:58.500Z,8.43
2023-04-16T17:10:25.123Z,8.68
2023-04-16T17:12:51.934Z,8.32
2023-04-16T17:15:21.459Z,9.45
2023-04-16T17:17:48.608Z,8.32
2023-04-16T17:20:15.771Z,9.50
2023-04-16T17:22:42.752Z,8.65
2023-04-16T17:25:09.588Z,9.05
2023-04-16T17:27:36.370Z,7.90
2023-04-16T17:30:05.677Z,7.78
2023-04-16T17:32:32.708Z,7.60
2023-04-16T17:35:00.819Z,8.88
2023-04-16T17:37:27.409Z,8.35
2023-04-16T17:39:54.194Z,9.18
2023-04-16T17:42:20.670Z,9.25
2023-04-16T17:44:47.502Z,8.77
2023-04-16T17:47:14.193Z,8.85
2023-04-16T17:49:40.864Z,8.27
2023-04-16T17:52:07.501Z,8.88
2023-04-16T17:54:33.974Z,9.25
2023-04-16T17:57:00.647Z,8.98
2023-04-16T17:59:27.449Z,9.30
2023-04-16T18:01:54.788Z,5.72
2023-04-16T18:04:21.687Z,9.05
2023-04-16T18:06:48.521Z,9.80
2023-04-16T18:09:15.576Z,10.07
2023-04-16T18:11:42.455Z,11.60
2023-04-16T18:14:10.209Z,9.02
2023-04-16T18:16:37.033Z,9.60
2023-04-16T18:19:03.510Z,7.38
2023-04-16T18:21:30.347Z,9.98
2023-04-16T18:23:57.538Z,9.73
2023-04-16T18:26:25.242Z,9.88
2023-04-16T18:28:52.054Z,9.05
2023-04-16T18:31:21.033Z,10.80
2023-04-16T18:33:55.305Z,9.75
2023-04-16T18:36:23.321Z,10.38
2023-04-16T18:39:00.177Z,10.23
2023-04-16T18:41:28.482Z,10.75
2023-04-16T18:43:55.015Z,10.20
2023-04-16T18:46:21.532Z,11.07
2023-04-16T18:48:48.175Z,11.35
2023-04-16T18:51:16.309Z,11.18
2023-04-16T18:53:44.527Z,10.85
2023-04-16T18:56:11.691Z,11.65
2023-04-16T18:58:38.353Z,11.50
2023-04-16T19:01:07.721Z,10.45
2023-04-16T19:03:34.512Z,12.25
2023-04-16T19:06:01.144Z,9.88
2023-04-16T19:08:27.914Z,10.90
2023-04-16T19:10:54.355Z,9.05
2023-04-16T19:13:21.110Z,10.27
2023-04-16T19:15:47.696Z,10.13
2023-04-16T19:18:14.334Z,11.80
2023-04-16T19:20:41.156Z,10.80
2023-04-16T19:23:09.254Z,10.57
2023-04-16T19:25:39.051Z,12.20
2023-04-16T19:28:05.740Z,11.77
2023-04-16T19:30:32.417Z,11.00
2023-04-16T19:32:59.153Z,7.07
2023-04-16T19:35:25.965Z,11.27
2023-04-16T19:37:52.562Z,11.18
2023-04-16T19:40:19.264Z,11.90
2023-04-16T19:42:45.932Z,10.00
2023-04-16T19:45:12.364Z,11.05
2023-04-16T19:47:38.979Z,11.63
2023-04-16T19:50:06.126Z,10.52
2023-04-16T19:52:37.433Z,10.57
2023-04-16T19:55:05.241Z,11.32
2023-04-16T19:57:31.893Z,12.05
2023-04-16T19:59:58.367Z,10.93
2023-04-16T20:02:24.930Z,12.32
2023-04-16T20:04:53.039Z,11.98
2023-04-16T20:07:20.117Z,12.32
2023-04-16T20:09:46.528Z,11.43
2023-04-16T20:12:13.252Z,12.95
2023-04-16T20:14:40.376Z,11.65
2023-04-16T20:17:09.978Z,12.45
2023-04-16T20:19:38.384Z,13.35
2023-04-16T20:22:05.070Z,12.10
2023-04-16T20:24:31.638Z,12.05
2023-04-16T20:26:58.123Z,10.38
2023-04-16T20:29:24.640Z,13.82
2023-04-16T20:31:51.326Z,12.43
2023-04-16T20:34:17.709Z,13.25
2023-04-16T20:36:44.455Z,11.75
2023-04-16T20:39:11.626Z,12.38
2023-04-16T20:41:43.902Z,11.02
2023-04-16T20:44:18.102Z,13.20
2023-04-16T20:46:49.612Z,12.88
2023-04-16T20:49:17.591Z,13.20
2023-04-16T20:51:45.445Z,13.57
2023-04-16T20:54:12.025Z,13.48
2023-04-16T20:56:38.445Z,12.65
2023-04-16T20:59:05.052Z,13.07
2023-04-16T21:01:33.383Z,10.50
2023-04-16T21:04:00.180Z,14.13
2023-04-16T21:06:27.282Z,12.75
2023-04-16T21:08:53.865Z,14.30
2023-04-16T21:11:20.713Z,13.50
2023-04-16T21:13:47.408Z,13.23
2023-04-16T21:16:13.865Z,14.18
2023-04-16T21:18:40.482Z,14.02
2023-04-16T21:21:07.068Z,13.88
2023-04-16T21:23:33.833Z,14.50
2023-04-16T21:26:00.337Z,14.95
2023-04-16T21:28:27.295Z,14.18
2023-04-16T21:30:53.862Z,12.90
2023-04-16T21:33:21.745Z,13.10
2023-04-16T21:35:55.140Z,13.23
2023-04-16T21:38:22.085Z,13.30
2023-04-16T21:40:51.368Z,11.18
2023-04-16T21:43:17.905Z,12.52
2023-04-16T21:45:44.674Z,11.98
2023-04-16T21:48:11.312Z,12.52
2023-04-16T21:50:38.211Z,10.98
2023-04-16T21:53:06.354Z,11.50
2023-04-16T21:55:34.658Z,12.30
2023-04-16T21:58:01.669Z,11.98
2023-04-16T22:00:28.661Z,12.25
2023-04-16T22:02:56.509Z,10.80
2023-04-16T22:05:25.706Z,11.20
2023-04-16T22:07:52.771Z,11.95
2023-04-16T22:10:19.279Z,13.70
2023-04-16T22:12:46.625Z,12.88
2023-04-16T22:15:14.090Z,13.02
2023-04-16T22:17:41.171Z,12.45
2023-04-16T22:20:13.229Z,13.93
2023-04-16T22:22:40.991Z,13.30
2023-04-16T22:25:08.020Z,12.43
2023-04-16T22:27:34.685Z,12.30
2023-04-16T22:30:01.674Z,13.13
2023-04-16T22:32:30.158Z,12.20
2023-04-16T22:34:56.876Z,14.32
2023-04-16T22:37:23.593Z,12.40
2023-04-16T22:39:50.326Z,13.40
2023-04-16T22:42:16.870Z,13.27
2023-04-16T22:44:43.423Z,12.98
2023-04-16T22:47:10.044Z,13.30
2023-04-16T22:49:36.552Z,14.13
2023-04-16T22:52:03.251Z,14.25
2023-04-16T22:54:30.475Z,14.30
2023-04-16T22:56:57.621Z,13.65
2023-04-16T22:59:24.746Z,12.63
2023-04-16T23:01:51.963Z,13.27
2023-04-16T23:04:18.653Z,13.93
2023-04-16T23:06:46.460Z,14.00
2023-04-16T23:09:13.288Z,14.00
2023-04-16T23:11:40.112Z,14.88
2023-04-16T23:14:06.650Z,14.25
2023-04-16T23:16:33.214Z,14.15
2023-04-16T23:18:59.646Z,14.13
2023-04-16T23:21:26.337Z,13.15
2023-04-16T23:23:54.442Z,15.18
2023-04-16T23:26:21.242Z,14.13
2023-04-16T23:28:47.682Z,14.15
2023-04-16T23:31:14.312Z,13.07
2023-04-16T23:33:41.093Z,14.50
2023-04-16T23:36:08.108Z,13.13
2023-04-16T23:38:34.587Z,14.85
2023-04-16T23:41:01.062Z,14.60
2023-04-16T23:43:27.930Z,14.50
2023-04-16T23:45:54.651Z,13.93
2023-04-16T23:48:21.336Z,13.73
2023-04-16T23:50:47.751Z,14.88
2023-04-16T23:53:14.382Z,14.98
2023-04-16T23:55:40.797Z,15.45
2023-04-16T23:58:07.193Z,15.38
